Time;durP1;ratioP1;P1;durP2;ratioP2;P2;SDS_P1;SDS_P2;PMS_P1;PMS_P2;Temp;Humidity;BMP_temperature;BMP_pressure;BME280_temperature;BME280_humidity;BME280_pressure;Samples;Min_cycle;Max_cycle;Signal;HPM_P1;HPM_P2
2023/03/22 00:01:20;;;;;;;11.88;8.20;;;10.20;99.90;;;;;;4952265;28;20031;-90
2023/03/22 00:03:47;;;;;;;14.38;8.63;;;10.10;99.90;;;;;;4935652;28;20394;-91
2023/03/22 00:06:13;;;;;;;11.07;8.65;;;10.20;99.90;;;;;;4932432;29;20098;-89
2023/03/22 00:08:39;;;;;;;13.73;8.50;;;10.10;99.90;;;;;;4932707;29;20179;-90
2023/03/22 00:11:06;;;;;;;11.25;8.43;;;10.20;99.90;;;;;;4932100;29;20031;-90
2023/03/22 00:13:33;;;;;;;11.88;8.57;;;10.00;99.90;;;;;;4931614;29;20043;-90
2023/03/22 00:16:01;;;;;;;14.07;8.50;;;9.90;99.90;;;;;;4948583;29;20023;-90
2023/03/22 00:18:28;;;;;;;12.98;8.30;;;9.80;99.90;;;;;;4951733;28;20027;-89
2023/03/22 00:20:56;;;;;;;10.45;8.23;;;9.90;99.90;;;;;;4951709;28;20030;-90
2023/03/22 00:23:23;;;;;;;12.82;8.30;;;10.00;99.90;;;;;;4951892;28;20505;-90
2023/03/22 00:25:49;;;;;;;10.50;8.20;;;9.90;99.90;;;;;;4951321;28;20063;-90
2023/03/22 00:28:15;;;;;;;10.48;8.18;;;10.00;99.90;;;;;;4951384;28;20074;-90
2023/03/22 00:30:41;;;;;;;10.43;7.30;;;9.90;99.90;;;;;;4951081;28;20110;-90
2023/03/22 00:33:08;;;;;;;9.93;7.72;;;9.80;99.90;;;;;;4950516;28;20038;-90
2023/03/22 00:35:34;;;;;;;10.07;7.38;;;9.70;99.90;;;;;;4949974;28;20035;-90
2023/03/22 00:38:05;;;;;;;12.13;7.80;;;9.80;99.90;;;;;;4951133;28;20527;-90
2023/03/22 00:40:34;;;;;;;12.60;8.13;;;9.90;99.90;;;;;;4951426;28;20032;-90
2023/03/22 00:43:00;;;;;;;10.63;7.68;;;10.00;99.90;;;;;;4951410;28;20371;-90
2023/03/22 00:45:26;;;;;;;10.68;7.93;;;9.90;99.90;;;;;;4950795;29;20030;-90
2023/03/22 00:47:51;;;;;;;11.23;8.68;;;9.90;99.90;;;;;;4951326;28;20038;-90
2023/03/22 00:50:17;;;;;;;11.02;8.50;;;10.00;99.90;;;;;;4950697;28;20460;-90
2023/03/22 00:52:42;;;;;;;10.45;8.20;;;9.80;99.90;;;;;;4950746;28;20042;-90
2023/03/22 00:55:08;;;;;;;11.52;9.02;;;9.80;99.90;;;;;;4950892;29;20481;-90
2023/03/22 00:57:34;;;;;;;12.65;8.70;;;9.80;99.90;;;;;;4950483;29;20159;-90
2023/03/22 01:00:06;;;;;;;12.50;9.40;;;9.80;99.90;;;;;;4951288;28;20035;-90
2023/03/22 01:02:32;;;;;;;11.68;8.07;;;9.80;99.90;;;;;;4949660;29;20031;-90
2023/03/22 01:04:58;;;;;;;10.20;8.45;;;9.70;99.90;;;;;;4951163;29;20042;-90
2023/03/22 01:07:24;;;;;;;12.02;7.90;;;9.60;99.90;;;;;;4949430;28;20037;-90
2023/03/22 01:09:50;;;;;;;9.13;7.38;;;9.40;99.90;;;;;;4949691;28;20063;-90
2023/03/22 01:12:17;;;;;;;10.15;7.35;;;9.40;99.90;;;;;;4950380;28;20034;-90
2023/03/22 01:14:43;;;;;;;12.15;7.57;;;9.40;99.90;;;;;;4950680;28;20492;-90
2023/03/22 01:17:09;;;;;;;8.88;7.00;;;9.50;99.90;;;;;;4950629;28;20081;-90
2023/03/22 01:19:36;;;;;;;9.63;7.20;;;9.40;99.90;;;;;;4950734;28;20077;-90
2023/03/22 01:22:04;;;;;;;8.23;6.82;;;9.30;99.90;;;;;;4950823;28;20039;-90
2023/03/22 01:24:29;;;;;;;9.48;6.80;;;9.20;99.90;;;;;;4950708;28;20034;-89
2023/03/22 01:26:55;;;;;;;10.20;7.45;;;9.10;99.90;;;;;;4949419;29;20505;-90
2023/03/22 01:29:21;;;;;;;10.60;7.60;;;9.20;99.90;;;;;;4950571;28;20036;-90
2023/03/22 01:31:47;;;;;;;9.15;7.40;;;9.00;99.90;;;;;;4949136;28;20031;-90
2023/03/22 01:34:13;;;;;;;9.90;7.82;;;8.80;99.90;;;;;;4950543;28;20023;-90
2023/03/22 01:36:38;;;;;;;12.07;8.77;;;8.90;99.90;;;;;;4949687;28;20035;-90
2023/03/22 01:39:04;;;;;;;12.93;8.23;;;9.10;99.90;;;;;;4950590;28;20524;-90
2023/03/22 01:41:33;;;;;;;12.38;8.75;;;9.10;99.90;;;;;;4950702;29;20035;-90
2023/03/22 01:44:19;;;;;;;12.07;9.23;;;9.10;99.90;;;;;;4953258;28;20394;-90
2023/03/22 01:46:46;;;;;;;9.73;8.35;;;9.30;99.90;;;;;;4944825;28;20027;-90
2023/03/22 01:49:26;;;;;;;9.80;7.88;;;9.10;99.90;;;;;;4953923;29;20062;-90
2023/03/22 01:51:55;;;;;;;10.40;8.98;;;9.10;99.90;;;;;;4953246;29;20035;-90
2023/03/22 01:54:41;;;;;;;10.93;8.88;;;9.10;99.90;;;;;;4953878;28;20698;-90
2023/03/22 01:57:07;;;;;;;11.15;8.77;;;9.10;99.90;;;;;;4953692;28;20051;-89
2023/03/22 01:59:33;;;;;;;10.80;8.63;;;9.10;99.90;;;;;;4952651;28;20019;-89
2023/03/22 02:01:59;;;;;;;10.90;8.85;;;9.20;99.90;;;;;;4953552;28;20077;-90
2023/03/22 02:04:33;;;;;;;10.45;7.28;;;9.20;99.90;;;;;;4953868;28;20732;-90
2023/03/22 02:07:01;;;;;;;9.95;7.60;;;9.10;99.90;;;;;;4954176;28;20165;-90
2023/03/22 02:09:28;;;;;;;10.65;7.03;;;9.00;99.90;;;;;;4952330;29;20035;-90
2023/03/22 02:12:31;;;;;;;9.65;6.35;;;9.20;99.90;;;;;;4953910;28;20031;-90
2023/03/22 02:15:10;;;;;;;8.35;6.45;;;9.00;99.90;;;;;;4953916;29;20023;-90
2023/03/22 02:18:15;;;;;;;9.07;6.28;;;9.00;99.90;;;;;;4953415;28;20031;-90
2023/03/22 02:20:59;;;;;;;8.13;6.10;;;9.00;99.90;;;;;;4953395;28;20041;-90
2023/03/22 02:23:34;;;;;;;8.60;6.15;;;8.90;99.90;;;;;;4954024;29;20039;-90
2023/03/22 02:26:28;;;;;;;8.95;7.03;;;8.90;99.90;;;;;;4951945;28;20122;-90
2023/03/22 02:29:21;;;;;;;8.38;6.72;;;8.80;99.90;;;;;;4953436;28;20128;-90
2023/03/22 02:32:05;;;;;;;8.43;6.72;;;8.80;99.90;;;;;;4952963;28;20040;-90
2023/03/22 02:34:52;;;;;;;9.57;6.70;;;8.90;99.90;;;;;;4953271;28;20413;-90
2023/03/22 02:37:48;;;;;;;8.90;6.80;;;8.90;99.90;;;;;;4951093;29;20582;-90
2023/03/22 02:40:19;;;;;;;8.95;7.00;;;9.00;99.90;;;;;;4952979;28;20140;-90
2023/03/22 02:43:00;;;;;;;8.48;6.82;;;8.90;99.90;;;;;;4953621;28;20055;-90
2023/03/22 02:45:34;;;;;;;10.00;6.90;;;8.70;99.90;;;;;;4952701;28;20030;-90
2023/03/22 02:48:04;;;;;;;9.38;7.07;;;8.40;99.90;;;;;;4953385;28;20047;-90
2023/03/22 02:50:50;;;;;;;9.93;7.00;;;8.30;99.90;;;;;;4951787;28;20146;-89
2023/03/22 02:53:20;;;;;;;7.85;6.78;;;8.40;99.90;;;;;;4939868;29;20039;-90
2023/03/22 02:55:58;;;;;;;11.40;7.65;;;8.50;99.90;;;;;;4951914;28;20392;-90
2023/03/22 02:58:29;;;;;;;8.52;7.05;;;8.50;99.90;;;;;;4952270;29;20394;-90
2023/03/22 03:01:02;;;;;;;8.75;6.97;;;8.60;99.90;;;;;;4952839;28;20161;-91
2023/03/22 03:03:29;;;;;;;9.63;6.88;;;8.60;99.90;;;;;;4953002;28;20444;-90
2023/03/22 03:06:03;;;;;;;9.38;6.68;;;8.50;99.90;;;;;;4952210;28;20042;-90
2023/03/22 03:08:30;;;;;;;9.95;6.72;;;8.40;99.90;;;;;;4952675;28;20071;-90
2023/03/22 03:10:55;;;;;;;8.50;6.57;;;8.20;99.90;;;;;;4953000;28;20031;-90
2023/03/22 03:13:21;;;;;;;10.32;6.75;;;8.10;99.90;;;;;;4952342;28;20023;-89
2023/03/22 03:15:56;;;;;;;8.80;6.65;;;8.20;99.90;;;;;;4953126;29;20109;-90
2023/03/22 03:18:45;;;;;;;8.93;6.65;;;8.30;99.90;;;;;;4952175;29;20161;-89
2023/03/22 03:21:31;;;;;;;7.97;6.70;;;8.40;99.90;;;;;;4951194;28;20054;-90
2023/03/22 03:24:32;;;;;;;8.30;6.35;;;8.20;99.90;;;;;;4952537;28;20054;-90
2023/03/22 03:27:01;;;;;;;10.65;6.85;;;8.30;99.90;;;;;;4956808;28;20100;-90
2023/03/22 03:29:50;;;;;;;8.63;6.60;;;8.10;99.90;;;;;;4951264;29;20046;-90
2023/03/22 03:32:26;;;;;;;7.80;6.15;;;8.20;99.90;;;;;;4952609;29;20564;-89
2023/03/22 03:35:08;;;;;;;10.00;6.97;;;8.30;99.90;;;;;;4952053;28;20436;-90
2023/03/22 03:37:47;;;;;;;9.05;6.93;;;8.10;99.90;;;;;;4952329;28;20031;-90
2023/03/22 03:40:17;;;;;;;8.05;6.60;;;8.10;99.90;;;;;;4952316;28;20027;-90
2023/03/22 03:42:47;;;;;;;9.38;7.63;;;8.10;99.90;;;;;;4952342;28;20032;-90
2023/03/22 03:45:14;;;;;;;9.75;7.65;;;8.10;99.90;;;;;;4951887;28;20102;-90
2023/03/22 03:47:43;;;;;;;8.68;6.82;;;8.10;99.90;;;;;;4952279;28;20554;-90
2023/03/22 03:50:11;;;;;;;12.10;7.32;;;8.20;99.90;;;;;;4952034;28;20019;-90
2023/03/22 03:52:37;;;;;;;10.32;7.68;;;8.30;99.90;;;;;;4950613;28;20042;-90
2023/03/22 03:55:03;;;;;;;8.85;7.18;;;8.20;99.90;;;;;;4951795;28;20024;-90
2023/03/22 03:57:29;;;;;;;9.60;7.75;;;8.20;99.90;;;;;;4951472;28;20036;-90
2023/03/22 03:59:54;;;;;;;9.60;7.68;;;8.20;99.90;;;;;;4952182;29;20058;-90
2023/03/22 04:02:20;;;;;;;11.13;8.35;;;8.20;99.90;;;;;;4951627;28;20308;-89
2023/03/22 04:04:46;;;;;;;11.32;7.88;;;8.20;99.90;;;;;;4952146;29;20074;-90
2023/03/22 04:07:11;;;;;;;9.77;7.32;;;8.10;99.90;;;;;;4950446;28;20043;-90
2023/03/22 04:09:39;;;;;;;10.30;7.57;;;8.10;99.90;;;;;;4952165;28;20047;-90
2023/03/22 04:12:08;;;;;;;12.80;8.40;;;8.00;99.90;;;;;;4951886;28;20120;-90
2023/03/22 04:14:34;;;;;;;8.48;7.32;;;8.00;99.90;;;;;;4951857;28;20118;-90
2023/03/22 04:16:59;;;;;;;8.07;7.22;;;8.00;99.90;;;;;;4952145;29;20169;-90
2023/03/22 04:19:25;;;;;;;10.43;7.97;;;8.10;99.90;;;;;;4951759;29;20120;-89
2023/03/22 04:21:51;;;;;;;9.38;7.50;;;8.00;99.90;;;;;;4951354;28;20030;-90
2023/03/22 04:24:19;;;;;;;7.45;6.32;;;7.90;99.90;;;;;;4951261;28;20035;-90
2023/03/22 04:26:44;;;;;;;9.48;7.20;;;7.80;99.90;;;;;;4950477;28;20386;-90
2023/03/22 04:29:10;;;;;;;7.47;6.20;;;7.80;99.90;;;;;;4951465;28;20100;-90
2023/03/22 04:31:36;;;;;;;7.95;6.78;;;7.80;99.90;;;;;;4951230;28;20478;-89
2023/03/22 04:34:04;;;;;;;9.40;6.55;;;7.80;99.90;;;;;;4951824;28;20039;-90
2023/03/22 04:36:35;;;;;;;9.73;6.88;;;7.80;99.90;;;;;;4952011;28;20043;-90
2023/03/22 04:39:04;;;;;;;9.40;6.75;;;7.70;99.90;;;;;;4951117;28;20042;-90
2023/03/22 04:41:31;;;;;;;8.70;7.25;;;7.80;99.90;;;;;;4950986;28;20115;-90
2023/03/22 04:44:01;;;;;;;8.68;7.25;;;7.70;99.90;;;;;;4951121;28;20035;-90
2023/03/22 04:46:27;;;;;;;9.85;6.97;;;7.80;99.90;;;;;;4951249;28;20525;-90
2023/03/22 04:48:53;;;;;;;8.63;6.57;;;7.70;99.90;;;;;;4951043;28;20047;-90
2023/03/22 04:51:19;;;;;;;7.25;6.50;;;7.70;99.90;;;;;;4951055;28;20084;-90
2023/03/22 04:53:44;;;;;;;7.45;6.13;;;7.70;99.90;;;;;;4951183;28;20505;-90
2023/03/22 04:56:12;;;;;;;11.02;6.10;;;7.80;99.90;;;;;;4949977;28;20505;-90
2023/03/22 04:58:40;;;;;;;9.48;6.07;;;7.90;99.90;;;;;;4951094;28;20032;-89
2023/03/22 05:01:07;;;;;;;8.93;7.03;;;7.70;99.90;;;;;;4949537;29;20031;-90
2023/03/22 05:03:34;;;;;;;7.90;6.20;;;7.60;99.90;;;;;;4951187;28;20028;-90
2023/03/22 05:06:00;;;;;;;9.95;6.80;;;7.60;99.90;;;;;;4951307;28;20031;-90
2023/03/22 05:08:28;;;;;;;7.10;6.40;;;7.60;99.90;;;;;;4950691;28;20035;-90
2023/03/22 05:10:55;;;;;;;7.60;5.90;;;7.60;99.90;;;;;;4949769;28;20030;-90
2023/03/22 05:13:22;;;;;;;9.70;6.70;;;7.50;99.90;;;;;;4950448;28;20084;-90
2023/03/22 05:15:48;;;;;;;8.80;6.25;;;7.50;99.90;;;;;;4950882;28;20024;-90
2023/03/22 05:18:15;;;;;;;8.73;6.13;;;7.50;99.90;;;;;;4950673;28;20038;-90
2023/03/22 05:20:42;;;;;;;7.00;5.95;;;7.50;99.90;;;;;;4950890;28;20035;-90
2023/03/22 05:23:08;;;;;;;8.18;6.30;;;7.40;99.90;;;;;;4951024;28;20035;-90
2023/03/22 05:25:35;;;;;;;9.02;6.65;;;7.40;99.90;;;;;;4946566;28;20055;-91
2023/03/22 05:28:01;;;;;;;10.45;6.57;;;7.30;99.90;;;;;;4931962;29;20020;-90
2023/03/22 05:30:28;;;;;;;8.25;6.30;;;7.40;99.90;;;;;;4931736;29;20040;-90
2023/03/22 05:33:03;;;;;;;7.90;6.03;;;7.40;99.90;;;;;;4948096;29;20030;-90
2023/03/22 05:35:30;;;;;;;7.00;5.53;;;7.40;99.90;;;;;;4931811;29;20128;-91
2023/03/22 05:37:56;;;;;;;8.32;5.75;;;7.40;99.90;;;;;;4932310;29;20035;-89
2023/03/22 05:40:26;;;;;;;9.30;6.13;;;7.50;99.90;;;;;;4931562;29;20103;-90
2023/03/22 05:42:52;;;;;;;7.50;5.80;;;7.50;99.90;;;;;;4931727;29;20062;-90
2023/03/22 05:45:19;;;;;;;8.52;6.60;;;7.50;99.90;;;;;;4941378;29;20118;-89
2023/03/22 05:47:45;;;;;;;11.55;6.38;;;7.60;99.90;;;;;;4950561;28;20035;-90
2023/03/22 05:50:14;;;;;;;7.82;6.40;;;7.60;99.90;;;;;;4951132;29;20039;-91
2023/03/22 05:52:41;;;;;;;9.13;6.10;;;7.70;99.90;;;;;;4950063;28;20375;-90
2023/03/22 05:55:08;;;;;;;12.02;6.63;;;7.70;99.90;;;;;;4949970;28;20031;-90
2023/03/22 05:57:34;;;;;;;9.82;6.95;;;7.60;99.90;;;;;;4949916;28;20034;-90
2023/03/22 06:00:00;;;;;;;8.63;6.32;;;7.60;99.90;;;;;;4949287;28;20031;-91
2023/03/22 06:02:27;;;;;;;8.38;6.50;;;7.40;99.90;;;;;;4949358;28;20028;-90
2023/03/22 06:04:53;;;;;;;8.57;6.53;;;7.30;99.90;;;;;;4950131;28;20067;-90
2023/03/22 06:07:19;;;;;;;9.27;6.35;;;7.40;99.90;;;;;;4949887;28;20571;-90
2023/03/22 06:09:45;;;;;;;9.98;6.85;;;7.40;99.90;;;;;;4949912;28;20191;-90
2023/03/22 06:12:15;;;;;;;10.07;7.05;;;7.20;99.90;;;;;;4950062;28;20034;-90
2023/03/22 06:14:41;;;;;;;8.38;6.18;;;7.20;99.90;;;;;;4949979;28;20032;-89
2023/03/22 06:17:08;;;;;;;9.10;6.20;;;7.40;99.90;;;;;;4950543;28;20027;-90
2023/03/22 06:19:33;;;;;;;10.32;6.55;;;7.30;99.90;;;;;;4950004;28;20404;-90
2023/03/22 06:21:59;;;;;;;9.80;7.07;;;7.40;99.90;;;;;;4933801;28;20028;-90
2023/03/22 06:24:25;;;;;;;11.30;7.30;;;7.50;99.90;;;;;;4931150;29;20257;-90
2023/03/22 06:26:50;;;;;;;12.95;7.68;;;7.30;99.90;;;;;;4931290;28;20060;-90
2023/03/22 06:29:16;;;;;;;8.98;6.90;;;7.40;99.90;;;;;;4931574;29;20123;-89
2023/03/22 06:31:41;;;;;;;7.93;7.05;;;7.50;99.90;;;;;;4933249;29;20478;-90
2023/03/22 06:34:07;;;;;;;10.63;7.00;;;7.50;99.90;;;;;;4950380;29;20035;-90
2023/03/22 06:36:33;;;;;;;8.90;7.07;;;7.50;99.90;;;;;;4953043;28;20028;-90
2023/03/22 06:38:59;;;;;;;7.93;7.00;;;7.60;99.90;;;;;;4953279;28;20402;-90
2023/03/22 06:41:25;;;;;;;10.13;6.80;;;7.70;99.90;;;;;;4952960;28;20039;-90
2023/03/22 06:43:51;;;;;;;8.45;6.28;;;7.60;99.90;;;;;;4951799;28;20458;-90
2023/03/22 06:46:17;;;;;;;8.10;6.45;;;7.50;99.90;;;;;;4950897;29;20102;-89
2023/03/22 06:48:42;;;;;;;10.50;6.75;;;7.40;99.90;;;;;;4952784;28;20043;-91
2023/03/22 06:51:08;;;;;;;16.08;7.13;;;7.40;99.90;;;;;;4952839;28;20027;-90
2023/03/22 06:53:34;;;;;;;11.95;6.65;;;7.40;99.90;;;;;;4953593;28;20466;-90
2023/03/22 06:55:59;;;;;;;11.73;7.03;;;7.50;99.90;;;;;;4953213;28;20031;-90
2023/03/22 06:58:25;;;;;;;8.98;6.95;;;7.50;99.90;;;;;;4953034;28;20397;-90
2023/03/22 07:00:51;;;;;;;10.32;7.05;;;7.60;99.90;;;;;;4953098;28;20020;-90
2023/03/22 07:03:17;;;;;;;9.20;7.07;;;7.70;99.90;;;;;;4951922;28;20122;-90
2023/03/22 07:05:43;;;;;;;11.95;7.22;;;7.70;99.90;;;;;;4951196;29;20538;-90
2023/03/22 07:08:09;;;;;;;10.55;7.47;;;7.80;99.90;;;;;;4944146;28;20101;-89
2023/03/22 07:10:35;;;;;;;10.52;7.55;;;7.90;99.90;;;;;;4952008;28;20081;-89
2023/03/22 07:13:02;;;;;;;9.95;6.90;;;8.00;99.90;;;;;;4953086;29;20027;-90
2023/03/22 07:15:29;;;;;;;11.95;7.60;;;8.30;99.90;;;;;;4946453;28;20421;-90
2023/03/22 07:17:54;;;;;;;10.32;7.70;;;8.40;99.90;;;;;;4953309;28;20047;-90
2023/03/22 07:20:20;;;;;;;10.30;6.88;;;8.50;99.90;;;;;;4952221;28;20452;-89
2023/03/22 07:22:46;;;;;;;12.00;7.30;;;8.60;99.90;;;;;;4952796;28;20466;-90
2023/03/22 07:25:12;;;;;;;9.20;7.28;;;8.70;99.90;;;;;;4953976;28;20094;-89
2023/03/22 07:27:37;;;;;;;10.30;7.03;;;8.90;99.90;;;;;;4940983;29;20025;-90
2023/03/22 07:30:04;;;;;;;11.00;7.15;;;9.00;99.90;;;;;;4951587;28;20484;-90
2023/03/22 07:32:30;;;;;;;10.88;7.22;;;9.20;99.90;;;;;;4951701;28;20101;-90
2023/03/22 07:34:56;;;;;;;9.30;7.43;;;9.40;99.90;;;;;;4952320;28;20478;-90
2023/03/22 07:37:21;;;;;;;10.52;7.03;;;9.40;99.90;;;;;;4952575;28;20019;-90
2023/03/22 07:39:47;;;;;;;10.10;7.70;;;9.50;99.90;;;;;;4952844;28;20035;-89
2023/03/22 07:42:13;;;;;;;10.50;7.85;;;9.70;99.90;;;;;;4952360;28;20019;-90
2023/03/22 07:44:38;;;;;;;10.05;7.00;;;9.80;99.90;;;;;;4951130;28;20091;-90
2023/03/22 07:47:04;;;;;;;10.10;6.68;;;9.90;99.90;;;;;;4952477;28;20031;-91
2023/03/22 07:49:30;;;;;;;9.95;7.07;;;10.00;99.90;;;;;;4952106;28;20039;-90
2023/03/22 07:51:56;;;;;;;9.25;6.50;;;10.10;99.90;;;;;;4952500;28;20559;-90
2023/03/22 07:54:22;;;;;;;9.45;6.90;;;10.20;99.90;;;;;;4952312;28;20027;-90
2023/03/22 07:56:47;;;;;;;10.75;6.45;;;10.20;99.90;;;;;;4952559;28;20102;-90
2023/03/22 07:59:16;;;;;;;7.65;6.10;;;10.30;99.90;;;;;;4952291;28;20031;-90
2023/03/22 08:01:43;;;;;;;10.90;7.15;;;10.40;99.90;;;;;;4951012;28;20496;-91
2023/03/22 08:04:09;;;;;;;9.80;6.55;;;10.60;99.90;;;;;;4951865;28;20465;-90
2023/03/22 08:06:35;;;;;;;7.43;6.00;;;10.80;99.90;;;;;;4952272;28;20019;-90
2023/03/22 08:09:03;;;;;;;5.43;4.93;;;11.00;99.90;;;;;;4951951;28;20469;-89
2023/03/22 08:11:29;;;;;;;7.88;5.50;;;11.10;99.90;;;;;;4952254;28;20102;-91
2023/03/22 08:13:55;;;;;;;10.48;5.05;;;11.30;99.90;;;;;;4952108;28;20470;-90
2023/03/22 08:16:21;;;;;;;6.00;5.18;;;11.40;99.90;;;;;;4952388;28;20023;-90
2023/03/22 08:18:47;;;;;;;7.47;5.53;;;11.60;99.90;;;;;;4951681;28;20028;-90
2023/03/22 08:21:12;;;;;;;6.38;4.93;;;11.70;99.90;;;;;;4953443;28;20023;-90
2023/03/22 08:23:38;;;;;;;9.43;5.63;;;11.80;99.90;;;;;;4954940;28;20095;-90
2023/03/22 08:26:04;;;;;;;7.78;5.22;;;11.90;99.90;;;;;;4953980;28;20453;-91
2023/03/22 08:28:29;;;;;;;5.15;4.60;;;12.00;99.90;;;;;;4945238;29;20039;-90
2023/03/22 08:30:55;;;;;;;6.03;4.57;;;12.10;99.90;;;;;;4949391;29;20036;-90
2023/03/22 08:33:22;;;;;;;7.80;4.45;;;12.20;99.90;;;;;;4935853;29;20560;-91
2023/03/22 08:35:49;;;;;;;6.85;4.78;;;12.40;99.90;;;;;;4933325;29;20027;-91
2023/03/22 08:38:15;;;;;;;6.18;4.88;;;12.50;99.90;;;;;;4934034;29;20051;-90
2023/03/22 08:40:40;;;;;;;6.03;5.03;;;12.60;99.90;;;;;;4934113;29;20490;-91
2023/03/22 08:43:06;;;;;;;6.28;4.60;;;12.60;99.90;;;;;;4934707;29;20086;-90
2023/03/22 08:45:32;;;;;;;5.75;4.47;;;12.60;99.90;;;;;;4944151;29;20076;-90
2023/03/22 08:47:58;;;;;;;6.80;5.00;;;12.80;99.90;;;;;;4951924;28;20125;-90
2023/03/22 08:50:25;;;;;;;6.47;4.63;;;12.90;99.90;;;;;;4951620;29;20063;-90
2023/03/22 08:52:52;;;;;;;8.55;5.30;;;13.10;99.90;;;;;;4949991;29;20038;-90
2023/03/22 08:55:18;;;;;;;7.53;4.88;;;13.20;99.90;;;;;;4951541;28;20408;-90
2023/03/22 08:57:49;;;;;;;9.02;5.07;;;13.30;99.90;;;;;;4951368;28;20034;-90
2023/03/22 09:00:16;;;;;;;6.15;4.50;;;13.40;99.90;;;;;;4951482;28;20027;-90
2023/03/22 09:02:42;;;;;;;5.00;4.50;;;13.50;99.90;;;;;;4951213;28;20027;-91
2023/03/22 09:05:08;;;;;;;7.65;4.25;;;13.70;99.90;;;;;;4951641;28;20031;-90
2023/03/22 09:07:34;;;;;;;4.57;3.88;;;13.90;99.90;;;;;;4951015;28;20081;-90
2023/03/22 09:09:59;;;;;;;5.70;4.10;;;14.00;99.90;;;;;;4951347;28;20130;-93
2023/03/22 09:12:25;;;;;;;4.50;3.50;;;14.20;99.90;;;;;;4951269;28;20070;-90
2023/03/22 09:14:51;;;;;;;4.93;3.60;;;14.30;99.90;;;;;;4951648;28;20405;-90
2023/03/22 09:17:17;;;;;;;4.70;3.05;;;14.50;99.90;;;;;;4951107;28;20105;-90
2023/03/22 09:19:44;;;;;;;4.38;2.92;;;14.70;99.90;;;;;;4951150;28;20425;-90
2023/03/22 09:22:10;;;;;;;3.80;2.78;;;15.30;99.90;;;;;;4951160;28;20509;-90
2023/03/22 09:24:36;;;;;;;4.70;3.38;;;18.40;99.90;;;;;;4951157;28;20054;-91
2023/03/22 09:27:02;;;;;;;4.05;2.85;;;21.30;99.90;;;;;;4935592;28;20031;-90
2023/03/22 09:29:27;;;;;;;5.15;4.10;;;22.80;99.90;;;;;;4931738;29;20039;-90
2023/03/22 09:31:53;;;;;;;6.25;5.55;;;24.00;99.90;;;;;;4931974;29;20039;-90
2023/03/22 09:34:19;;;;;;;8.02;5.85;;;24.30;99.90;;;;;;4931933;29;20027;-91
2023/03/22 09:36:46;;;;;;;6.40;5.13;;;24.80;99.90;;;;;;4931925;29;20502;-90
2023/03/22 09:39:12;;;;;;;6.90;5.82;;;24.30;99.90;;;;;;4931846;29;20461;-90
2023/03/22 09:41:44;;;;;;;7.72;6.30;;;23.60;99.90;;;;;;4931912;29;20107;-90
2023/03/22 09:44:21;;;;;;;8.15;7.35;;;23.70;99.90;;;;;;4931996;29;20073;-90
2023/03/22 09:46:50;;;;;;;12.25;8.05;;;23.10;99.90;;;;;;4931622;29;20032;-90
2023/03/22 09:49:21;;;;;;;10.98;8.02;;;22.70;99.90;;;;;;4931707;29;20037;-90
2023/03/22 09:51:54;;;;;;;9.27;7.82;;;23.40;99.90;;;;;;4931494;28;20032;-90
2023/03/22 09:54:33;;;;;;;8.35;7.53;;;23.80;99.90;;;;;;4931520;29;20066;-90
2023/03/22 09:57:08;;;;;;;8.23;7.13;;;24.40;99.90;;;;;;4931630;29;20034;-90
2023/03/22 09:59:57;;;;;;;9.15;7.32;;;25.40;99.90;;;;;;4931196;29;20032;-90
2023/03/22 10:02:44;;;;;;;6.97;6.07;;;26.10;99.90;;;;;;4931422;29;20047;-90
2023/03/22 10:05:35;;;;;;;6.32;5.72;;;25.90;99.90;;;;;;4934292;28;20028;-90
2023/03/22 10:08:19;;;;;;;6.57;5.97;;;25.40;99.90;;;;;;4934959;28;20050;-90
2023/03/22 10:10:45;;;;;;;7.80;5.90;;;25.30;99.90;;;;;;4934649;29;20102;-91
2023/03/22 10:13:45;;;;;;;6.07;5.40;;;26.70;99.90;;;;;;4934798;29;20035;-91
2023/03/22 10:16:20;;;;;;;6.00;5.25;;;27.00;99.90;;;;;;4934752;28;20028;-91
2023/03/22 10:18:50;;;;;;;5.30;4.80;;;26.60;99.90;;;;;;4934773;28;20031;-91
2023/03/22 10:21:18;;;;;;;7.03;4.70;;;26.80;99.90;;;;;;4935010;29;20374;-91
2023/03/22 10:23:45;;;;;;;4.97;3.97;;;27.10;99.90;;;;;;4934511;29;20039;-91
2023/03/22 10:26:29;;;;;;;9.13;4.40;;;27.60;99.90;;;;;;4934248;28;20051;-91
2023/03/22 10:29:08;;;;;;;7.22;4.60;;;28.20;99.90;;;;;;4934183;29;20047;-90
2023/03/22 10:31:34;;;;;;;4.78;4.38;;;28.70;99.90;;;;;;4934402;29;20032;-91
2023/03/22 10:34:05;;;;;;;7.13;4.50;;;28.80;99.90;;;;;;4934328;29;20039;-90
2023/03/22 10:36:34;;;;;;;5.65;3.88;;;28.90;99.90;;;;;;4934827;29;20094;-91
2023/03/22 10:39:15;;;;;;;6.63;3.70;;;29.30;99.90;;;;;;4934711;29;20024;-91
2023/03/22 10:41:42;;;;;;;4.43;3.88;;;30.50;99.90;;;;;;4934270;29;20077;-92
2023/03/22 10:44:16;;;;;;;4.22;3.63;;;30.90;99.90;;;;;;4934197;29;20024;-91
2023/03/22 10:46:44;;;;;;;4.65;3.90;;;30.30;99.90;;;;;;4935261;29;20023;-91
2023/03/22 10:49:20;;;;;;;5.63;3.78;;;30.60;99.90;;;;;;4937181;29;20185;-91
2023/03/22 10:51:49;;;;;;;5.85;3.67;;;31.20;99.90;;;;;;4937953;28;20107;-92
2023/03/22 10:54:20;;;;;;;6.95;3.80;;;30.50;99.90;;;;;;4937572;29;20153;-91
2023/03/22 10:56:46;;;;;;;3.65;3.35;;;30.70;99.90;;;;;;4937398;28;20051;-91
2023/03/22 10:59:44;;;;;;;3.30;3.00;;;32.00;99.90;;;;;;4935696;29;20030;-91
2023/03/22 11:02:50;;;;;;;4.22;3.08;;;31.80;99.90;;;;;;4934198;29;20031;-92
2023/03/22 11:05:34;;;;;;;5.22;2.80;;;32.60;99.90;;;;;;4933852;28;20046;-91
2023/03/22 11:08:01;;;;;;;3.35;2.72;;;32.20;99.90;;;;;;4933885;29;20089;-91
2023/03/22 11:10:31;;;;;;;3.95;2.55;;;33.20;99.90;;;;;;4934251;29;20422;-91
2023/03/22 11:13:06;;;;;;;6.15;3.92;;;34.20;99.90;;;;;;4933725;29;20111;-92
2023/03/22 11:15:38;;;;;;;2.47;2.28;;;34.80;99.90;;;;;;4933142;28;20509;-91
2023/03/22 11:18:13;;;;;;;2.70;2.50;;;33.10;99.90;;;;;;4933746;29;20032;-92
2023/03/22 11:20:40;;;;;;;4.25;2.17;;;33.30;99.90;;;;;;4933849;28;20028;-92
2023/03/22 11:23:10;;;;;;;3.40;2.35;;;33.50;99.90;;;;;;4933712;28;20043;-92
2023/03/22 11:25:42;;;;;;;1.95;1.60;;;33.30;99.90;;;;;;4933494;28;20052;-92
2023/03/22 11:28:18;;;;;;;2.00;1.70;;;33.40;99.90;;;;;;4933186;29;20445;-92
2023/03/22 11:31:01;;;;;;;4.47;2.03;;;33.90;99.90;;;;;;4933741;29;20110;-92
2023/03/22 11:33:26;;;;;;;2.70;1.98;;;33.60;99.90;;;;;;4933858;29;20036;-92
2023/03/22 11:35:58;;;;;;;2.42;1.88;;;33.10;99.90;;;;;;4933600;29;20028;-92
2023/03/22 11:38:37;;;;;;;3.25;1.60;;;33.20;99.90;;;;;;4933440;29;20036;-92
2023/03/22 11:41:12;;;;;;;1.83;1.73;;;31.90;99.90;;;;;;4933196;29;20102;-92
2023/03/22 11:43:42;;;;;;;3.85;1.73;;;32.80;99.90;;;;;;4933438;29;20032;-92
2023/03/22 11:46:09;;;;;;;2.03;1.40;;;33.90;99.90;;;;;;4949171;29;20386;-93
2023/03/22 11:48:36;;;;;;;1.70;1.60;;;33.20;99.90;;;;;;4952630;28;20046;-92
2023/03/22 11:51:11;;;;;;;5.03;1.77;;;33.50;99.90;;;;;;4952394;28;20122;-93
2023/03/22 11:53:40;;;;;;;2.45;1.88;;;33.30;99.90;;;;;;4952484;28;20035;-91
2023/03/22 11:56:10;;;;;;;1.60;1.50;;;33.50;99.90;;;;;;4951972;28;20059;-92
2023/03/22 11:58:41;;;;;;;4.30;1.60;;;34.10;99.90;;;;;;4952774;28;20415;-92
2023/03/22 12:01:14;;;;;;;2.92;1.70;;;35.30;99.90;;;;;;4952283;28;20096;-92
2023/03/22 12:03:42;;;;;;;1.80;1.40;;;34.50;99.90;;;;;;4952320;28;20032;-92
2023/03/22 12:06:37;;;;;;;1.77;1.60;;;33.60;99.90;;;;;;4952289;28;20116;-92
2023/03/22 12:09:20;;;;;;;2.20;1.60;;;33.00;99.90;;;;;;4951908;28;20039;-92
2023/03/22 12:11:50;;;;;;;1.58;1.48;;;32.40;99.90;;;;;;4951748;28;20027;-92
2023/03/22 12:14:25;;;;;;;1.58;1.30;;;32.30;99.90;;;;;;4952080;28;20043;-91
2023/03/22 12:17:19;;;;;;;1.23;1.15;;;34.20;99.90;;;;;;4952133;28;20498;-92
2023/03/22 12:19:55;;;;;;;1.35;1.25;;;35.50;99.90;;;;;;4951988;28;20039;-92
2023/03/22 12:22:31;;;;;;;3.65;1.33;;;34.30;99.90;;;;;;4951926;28;20035;-92
2023/03/22 12:24:58;;;;;;;1.38;1.27;;;34.00;99.90;;;;;;4951589;28;20051;-92
2023/03/22 12:27:30;;;;;;;1.45;1.15;;;34.40;99.90;;;;;;4931972;28;20028;-92
2023/03/22 12:30:14;;;;;;;1.60;1.02;;;34.70;99.90;;;;;;4932895;29;20064;-93
2023/03/22 12:32:47;;;;;;;1.10;1.00;;;34.80;99.90;;;;;;4932321;29;20047;-92
2023/03/22 12:35:19;;;;;;;2.17;1.10;;;34.30;99.90;;;;;;4932602;29;20131;-92
2023/03/22 12:37:50;;;;;;;1.83;1.02;;;34.40;99.90;;;;;;4932953;29;20031;-92
2023/03/22 12:40:36;;;;;;;1.30;1.23;;;34.10;99.90;;;;;;4932435;29;20111;-92
2023/03/22 12:43:14;;;;;;;1.45;1.17;;;33.10;99.90;;;;;;4931300;29;20114;-92
2023/03/22 12:45:52;;;;;;;1.40;1.30;;;32.70;99.90;;;;;;4944298;29;20054;-91
2023/03/22 12:48:20;;;;;;;6.93;2.00;;;32.70;99.90;;;;;;4951508;28;20065;-92
2023/03/22 12:50:54;;;;;;;3.35;1.50;;;32.20;99.90;;;;;;4952018;28;20096;-92
2023/03/22 12:53:21;;;;;;;1.63;1.40;;;32.30;99.90;;;;;;4951642;28;20085;-92
2023/03/22 12:55:48;;;;;;;1.35;1.20;;;33.10;99.90;;;;;;4951642;28;20035;-92
2023/03/22 12:58:23;;;;;;;0.70;0.60;;;33.40;99.90;;;;;;4951397;28;20054;-92
2023/03/22 13:00:57;;;;;;;0.55;0.55;;;32.00;99.90;;;;;;4952103;28;20051;-92
2023/03/22 13:03:36;;;;;;;0.60;0.60;;;32.00;99.90;;;;;;4950305;29;20070;-92
2023/03/22 13:06:26;;;;;;;2.25;0.70;;;33.00;99.90;;;;;;4951457;28;20051;-92